createdAt,value
2022-11-28T00:01:43.868Z,99172.23
2022-11-28T00:04:12.386Z,99171.22
2022-11-28T00:06:46.310Z,99166.55
2022-11-28T00:09:15.291Z,99168.95
2022-11-28T00:11:45.489Z,99169.30
2022-11-28T00:14:13.684Z,99169.47
2022-11-28T00:16:42.059Z,99168.77
2022-11-28T00:19:12.090Z,99167.55
2022-11-28T00:21:40.930Z,99168.42
2022-11-28T00:24:09.940Z,99165.64
2022-11-28T00:26:40.719Z,99163.90
2022-11-28T00:29:09.377Z,99159.91
2022-11-28T00:31:43.018Z,99161.98
2022-11-28T00:34:13.675Z,99156.79
2022-11-28T00:36:44.209Z,99152.13
2022-11-28T00:39:12.320Z,99149.01
2022-11-28T00:41:40.333Z,99146.91
2022-11-28T00:44:08.614Z,99151.41
2022-11-28T00:46:36.336Z,99149.36
2022-11-28T00:49:04.562Z,99147.29
2022-11-28T00:51:33.911Z,99140.91
2022-11-28T00:54:03.065Z,99144.20
2022-11-28T00:56:33.663Z,99140.39
2022-11-28T00:59:01.533Z,99134.70
2022-11-28T01:01:30.709Z,99134.54
2022-11-28T01:04:00.617Z,99133.65
2022-11-28T01:06:34.559Z,99130.02
2022-11-28T01:09:06.854Z,99124.14
2022-11-28T01:11:37.217Z,99119.79
2022-11-28T01:14:05.404Z,99117.37
2022-11-28T01:16:33.473Z,99108.55
2022-11-28T01:19:01.394Z,99105.76
2022-11-28T01:21:29.146Z,99100.37
2022-11-28T01:23:57.012Z,99105.16
2022-11-28T01:26:27.522Z,99110.50
2022-11-28T01:28:56.403Z,99108.09
2022-11-28T01:31:27.328Z,99097.54
2022-11-28T01:33:56.367Z,99098.77
2022-11-28T01:36:25.746Z,99099.45
2022-11-28T01:38:54.641Z,99094.94
2022-11-28T01:41:27.841Z,99084.37
2022-11-28T01:44:15.654Z,99081.25
2022-11-28T01:46:44.134Z,99084.19
2022-11-28T01:49:15.711Z,99079.02
2022-11-28T01:51:48.122Z,99066.91
2022-11-28T01:54:19.014Z,99060.66
2022-11-28T01:57:01.664Z,99062.73
2022-11-28T01:59:33.869Z,99056.86
2022-11-28T02:02:05.297Z,99052.16
2022-11-28T02:04:34.455Z,99049.21
2022-11-28T02:07:02.494Z,99043.70
2022-11-28T02:09:30.384Z,99046.14
2022-11-28T02:12:09.973Z,99044.74
2022-11-28T02:14:46.890Z,99045.27
2022-11-28T02:17:35.667Z,99043.73
2022-11-28T02:20:25.574Z,99038.23
2022-11-28T02:23:20.997Z,99033.27
2022-11-28T02:26:08.749Z,99033.14
2022-11-28T02:28:39.714Z,99028.08
2022-11-28T02:31:26.709Z,99030.98
2022-11-28T02:34:00.031Z,99034.94
2022-11-28T02:36:36.092Z,99033.90
2022-11-28T02:39:19.499Z,99035.64
2022-11-28T02:42:12.347Z,99038.95
2022-11-28T02:44:57.476Z,99041.04
2022-11-28T02:47:38.793Z,99028.75
2022-11-28T02:50:28.825Z,99028.89
2022-11-28T02:52:59.223Z,99026.98
2022-11-28T02:55:27.878Z,99023.98
2022-11-28T02:57:55.893Z,99022.89
2022-11-28T03:00:31.245Z,99025.10
2022-11-28T03:03:01.868Z,99022.11
2022-11-28T03:05:39.317Z,99021.53
2022-11-28T03:08:39.945Z,99018.55
2022-11-28T03:11:16.876Z,99016.59
2022-11-28T03:13:47.667Z,99016.91
2022-11-28T03:16:27.017Z,99014.44
2022-11-28T03:19:19.305Z,99015.08
2022-11-28T03:21:46.965Z,99011.02
2022-11-28T03:24:38.125Z,99009.46
2022-11-28T03:27:13.808Z,99007.09
2022-11-28T03:29:54.184Z,99004.65
2022-11-28T03:32:30.481Z,98998.91
2022-11-28T03:35:05.202Z,98998.33
2022-11-28T03:37:38.366Z,98999.36
2022-11-28T03:40:13.897Z,98994.55
2022-11-28T03:42:47.573Z,98994.06
2022-11-28T03:45:20.921Z,98994.44
2022-11-28T03:47:57.169Z,98990.80
2022-11-28T03:50:36.749Z,98989.38
2022-11-28T03:53:20.645Z,98992.11
2022-11-28T03:55:56.985Z,98987.46
2022-11-28T03:58:28.174Z,98983.11
2022-11-28T04:01:20.200Z,98983.56
2022-11-28T04:03:58.170Z,98986.14
2022-11-28T04:06:37.956Z,98983.70
2022-11-28T04:09:14.184Z,98981.11
2022-11-28T04:11:54.355Z,98978.73
2022-11-28T04:14:31.715Z,98976.90
2022-11-28T04:17:14.041Z,98976.07
2022-11-28T04:19:43.144Z,98979.11
2022-11-28T04:22:16.361Z,98980.52
2022-11-28T04:24:48.026Z,98981.00
2022-11-28T04:27:23.478Z,98981.18
2022-11-28T04:29:53.686Z,98971.81
2022-11-28T04:32:23.536Z,98973.89
2022-11-28T04:34:56.451Z,98974.59
2022-11-28T04:37:28.117Z,98979.60
2022-11-28T04:39:56.856Z,98977.17
2022-11-28T04:42:36.154Z,98980.63
2022-11-28T04:45:13.573Z,98982.04
2022-11-28T04:47:42.952Z,98982.89
2022-11-28T04:50:13.561Z,98983.86
2022-11-28T04:52:59.794Z,98981.72
2022-11-28T04:55:38.320Z,98981.28
2022-11-28T04:58:28.418Z,98978.92
2022-11-28T05:00:58.206Z,98979.88
2022-11-28T05:03:30.843Z,98980.69
2022-11-28T05:05:58.773Z,98983.19
2022-11-28T05:08:26.589Z,98982.78
2022-11-28T05:10:54.552Z,98981.72
2022-11-28T05:13:22.358Z,98981.06
2022-11-28T05:15:50.098Z,98980.30
2022-11-28T05:18:17.804Z,98982.45
2022-11-28T05:20:45.622Z,98979.65
2022-11-28T05:23:13.455Z,98978.77
2022-11-28T05:25:41.436Z,98979.84
2022-11-28T05:28:09.346Z,98977.82
2022-11-28T05:30:37.096Z,98977.89
2022-11-28T05:33:04.807Z,98977.27
2022-11-28T05:35:32.852Z,98980.27
2022-11-28T05:38:00.645Z,98984.09
2022-11-28T05:40:28.425Z,98980.80
2022-11-28T05:42:56.185Z,98983.02
2022-11-28T05:45:24.508Z,98976.25
2022-11-28T05:47:52.340Z,98978.99
2022-11-28T05:50:20.090Z,98978.11
2022-11-28T05:52:47.857Z,98974.16
2022-11-28T05:55:15.835Z,98979.92
2022-11-28T05:57:43.515Z,98974.58
2022-11-28T06:00:12.310Z,98973.70
2022-11-28T06:02:40.140Z,98973.68
2022-11-28T06:05:34.784Z,98968.80
2022-11-28T06:07:55.779Z,98971.61
2022-11-28T06:10:23.690Z,98976.66
2022-11-28T06:12:51.636Z,98973.68
2022-11-28T06:15:19.390Z,98967.59
2022-11-28T06:17:47.162Z,98965.30
2022-11-28T06:20:15.102Z,98965.77
2022-11-28T06:22:42.955Z,98962.63
2022-11-28T06:25:10.773Z,98961.58
2022-11-28T06:27:38.501Z,98960.04
2022-11-28T06:30:07.551Z,98965.77
2022-11-28T06:32:35.543Z,98963.70
2022-11-28T06:35:03.470Z,98967.90
2022-11-28T06:37:31.247Z,98968.13
2022-11-28T06:39:59.429Z,98962.95
2022-11-28T06:42:27.308Z,98965.88
2022-11-28T06:44:55.135Z,98968.13
2022-11-28T06:47:23.036Z,98968.13
2022-11-28T06:49:50.854Z,98971.61
2022-11-28T06:52:18.711Z,98969.88
2022-11-28T06:54:46.622Z,98969.71
2022-11-28T06:57:14.473Z,98970.39
2022-11-28T06:59:43.473Z,98963.09
2022-11-28T07:02:11.779Z,98964.23
2022-11-28T07:04:39.770Z,98961.88
2022-11-28T07:07:07.809Z,98960.24
2022-11-28T07:09:35.671Z,98959.17
2022-11-28T07:12:03.500Z,98957.47
2022-11-28T07:14:33.637Z,98958.38
2022-11-28T07:17:01.509Z,98957.40
2022-11-28T07:19:29.218Z,98957.27
2022-11-28T07:21:57.050Z,98952.26
2022-11-28T07:24:24.890Z,98953.42
2022-11-28T07:26:52.717Z,98955.47
2022-11-28T07:29:20.558Z,98953.06
2022-11-28T07:31:48.549Z,98949.13
2022-11-28T07:34:16.846Z,98950.56
2022-11-28T07:36:44.667Z,98946.64
2022-11-28T07:39:16.169Z,98943.91
2022-11-28T07:41:43.946Z,98939.39
2022-11-28T07:44:13.233Z,98939.04
2022-11-28T07:46:41.066Z,98931.27
2022-11-28T07:49:08.979Z,98939.81
2022-11-28T07:51:36.867Z,98936.49
2022-11-28T07:54:06.080Z,98938.42
2022-11-28T07:57:10.651Z,98934.63
2022-11-28T07:59:24.930Z,98935.81
2022-11-28T08:01:54.118Z,98930.11
2022-11-28T08:04:23.069Z,98928.91
2022-11-28T08:06:51.050Z,98931.59
2022-11-28T08:09:19.575Z,98926.61
2022-11-28T08:11:47.553Z,98921.98
2022-11-28T08:14:15.447Z,98923.38
2022-11-28T08:16:45.225Z,98917.68
2022-11-28T08:19:13.949Z,98919.09
2022-11-28T08:21:41.734Z,98914.11
2022-11-28T08:24:10.910Z,98923.95
2022-11-28T08:26:38.797Z,98922.23
2022-11-28T08:29:06.701Z,98920.67
2022-11-28T08:31:38.349Z,98921.51
2022-11-28T08:34:08.547Z,98918.55
2022-11-28T08:36:36.703Z,98916.98
2022-11-28T08:41:59.755Z,98918.80
2022-11-28T08:44:30.476Z,98919.10
2022-11-28T08:46:58.940Z,98925.16
2022-11-28T08:49:26.829Z,98928.27
2022-11-28T08:51:54.729Z,98928.94
2022-11-28T08:54:22.557Z,98929.52
2022-11-28T08:56:50.450Z,98929.27
2022-11-28T08:59:18.332Z,98926.80
2022-11-28T09:01:46.257Z,98929.05
2022-11-28T09:04:14.198Z,98930.79
2022-11-28T09:06:42.416Z,98930.09
2022-11-28T09:09:10.288Z,98926.65
2022-11-28T09:11:38.283Z,98924.23
2022-11-28T09:14:06.613Z,98919.42
2022-11-28T09:16:34.538Z,98922.86
2022-11-28T09:19:02.418Z,98912.30
2022-11-28T09:21:30.186Z,98909.52
2022-11-28T09:23:58.011Z,98908.11
2022-11-28T09:26:26.210Z,98908.62
2022-11-28T09:28:54.877Z,98904.58
2022-11-28T09:31:23.465Z,98902.27
2022-11-28T09:33:51.710Z,98899.81
2022-11-28T09:36:22.236Z,98899.96
2022-11-28T09:38:51.006Z,98896.12
2022-11-28T09:41:40.354Z,98892.82
2022-11-28T09:44:34.543Z,98889.33
2022-11-28T09:47:05.952Z,98884.81
2022-11-28T09:49:48.654Z,98880.61
2022-11-28T09:52:38.934Z,98881.17
2022-11-28T09:55:30.952Z,98873.79
2022-11-28T09:58:05.672Z,98871.81
2022-11-28T10:00:36.595Z,98871.24
2022-11-28T10:03:07.229Z,98869.98
2022-11-28T10:05:42.572Z,98873.42
2022-11-28T10:08:36.074Z,98867.63
2022-11-28T10:11:30.487Z,98862.57
2022-11-28T10:14:26.758Z,98865.23
2022-11-28T10:17:00.781Z,98857.23
2022-11-28T10:19:54.710Z,98847.58
2022-11-28T10:22:30.788Z,98841.69
2022-11-28T10:25:04.817Z,98838.38
2022-11-28T10:27:36.249Z,98841.31
2022-11-28T10:30:15.896Z,98831.20
2022-11-28T10:32:53.716Z,98831.83
2022-11-28T10:35:28.332Z,98828.10
2022-11-28T10:37:56.731Z,98826.29
2022-11-28T10:40:54.759Z,98824.68
2022-11-28T10:43:37.462Z,98818.55
2022-11-28T10:46:11.344Z,98822.73
2022-11-28T10:49:05.253Z,98816.65
2022-11-28T10:51:51.322Z,98812.63
2022-11-28T10:55:02.868Z,98814.29
2022-11-28T10:57:43.181Z,98807.98
2022-11-28T11:00:21.281Z,98805.30
2022-11-28T11:02:54.886Z,98801.40
2022-11-28T11:05:28.792Z,98802.17
2022-11-28T11:07:58.542Z,98802.05
2022-11-28T11:10:38.737Z,98798.14
2022-11-28T11:13:16.739Z,98804.35
2022-11-28T11:15:46.169Z,98798.80
2022-11-28T11:18:37.398Z,98799.39
2022-11-28T11:21:15.868Z,98798.75
2022-11-28T11:23:45.234Z,98795.55
2022-11-28T11:26:27.502Z,98799.51
2022-11-28T11:28:56.525Z,98799.43
2022-11-28T11:31:41.910Z,98793.70
2022-11-28T11:34:17.041Z,98792.70
2022-11-28T11:36:46.380Z,98798.77
2022-11-28T11:39:14.143Z,98801.11
2022-11-28T11:41:45.253Z,98800.66
2022-11-28T11:44:20.521Z,98801.33
2022-11-28T11:46:57.090Z,98798.52
2022-11-28T11:49:32.613Z,98797.69
2022-11-28T11:52:22.933Z,98796.48
2022-11-28T11:54:57.235Z,98791.77
2022-11-28T11:57:37.936Z,98795.20
2022-11-28T12:00:22.570Z,98792.02
2022-11-28T12:03:05.102Z,98787.50
2022-11-28T12:06:12.832Z,98787.04
2022-11-28T12:09:04.266Z,98782.70
2022-11-28T12:11:56.602Z,98782.27
2022-11-28T12:14:29.030Z,98779.13
2022-11-28T12:17:46.675Z,98772.30
2022-11-28T12:20:12.652Z,98779.34
2022-11-28T12:22:55.887Z,98777.11
2022-11-28T12:25:39.181Z,98779.41
2022-11-28T12:28:13.990Z,98775.02
2022-11-28T12:31:00.774Z,98776.02
2022-11-28T12:33:43.507Z,98779.38
2022-11-28T12:36:18.127Z,98776.23
2022-11-28T12:39:24.499Z,98776.18
2022-11-28T12:42:16.624Z,98774.15
2022-11-28T12:44:52.476Z,98772.48
2022-11-28T12:47:48.507Z,98766.64
2022-11-28T12:50:28.740Z,98766.39
2022-11-28T12:53:15.476Z,98760.64
2022-11-28T12:56:08.375Z,98759.48
2022-11-28T12:58:43.948Z,98758.70
2022-11-28T13:01:13.397Z,98751.11
2022-11-28T13:03:52.454Z,98749.60
2022-11-28T13:06:35.123Z,98749.42
2022-11-28T13:09:24.373Z,98749.88
2022-11-28T13:11:58.308Z,98747.52
2022-11-28T13:14:48.047Z,98745.37
2022-11-28T13:17:36.015Z,98739.93
2022-11-28T13:20:31.773Z,98737.13
2022-11-28T13:23:28.704Z,98736.89
2022-11-28T13:26:05.323Z,98733.04
2022-11-28T13:29:07.684Z,98732.59
2022-11-28T13:32:04.418Z,98731.45
2022-11-28T13:34:33.004Z,98729.41
2022-11-28T13:40:24.466Z,98726.47
2022-11-28T13:43:11.145Z,98727.96
2022-11-28T13:45:44.032Z,98732.61
2022-11-28T13:48:57.529Z,98730.60
2022-11-28T13:51:30.592Z,98726.86
2022-11-28T13:54:31.781Z,98729.74
2022-11-28T13:57:21.517Z,98730.13
2022-11-28T14:00:01.815Z,98729.77
2022-11-28T14:02:56.433Z,98731.86
2022-11-28T14:05:36.022Z,98715.36
2022-11-28T14:08:05.906Z,98723.10
2022-11-28T14:10:49.391Z,98715.27
2022-11-28T14:13:56.061Z,98717.20
2022-11-28T14:16:38.652Z,98717.75
2022-11-28T14:19:22.642Z,98714.77
2022-11-28T14:21:57.044Z,98715.02
2022-11-28T14:24:24.732Z,98713.99
2022-11-28T14:27:03.677Z,98709.46
2022-11-28T14:29:38.977Z,98707.96
2022-11-28T14:32:30.107Z,98706.45
2022-11-28T14:35:00.215Z,98708.39
2022-11-28T14:37:29.436Z,98705.48
2022-11-28T14:39:58.154Z,98703.11
2022-11-28T14:42:58.228Z,98707.02
2022-11-28T14:45:32.734Z,98711.00
2022-11-28T14:48:18.074Z,98707.90
2022-11-28T14:50:47.437Z,98710.80
2022-11-28T14:53:37.339Z,98713.33
2022-11-28T14:56:28.066Z,98711.20
2022-11-28T14:59:01.002Z,98718.35
2022-11-28T15:01:54.383Z,98719.87
2022-11-28T15:04:45.728Z,98720.20
2022-11-28T15:07:28.345Z,98716.46
2022-11-28T15:10:14.848Z,98716.68
2022-11-28T15:13:01.350Z,98714.18
2022-11-28T15:15:30.076Z,98711.38
2022-11-28T15:18:00.986Z,98712.73
2022-11-28T15:20:36.576Z,98713.52
2022-11-28T15:23:04.383Z,98717.04
2022-11-28T15:25:37.481Z,98718.47
2022-11-28T15:28:15.564Z,98725.61
2022-11-28T15:30:47.175Z,98728.86
2022-11-28T15:33:15.506Z,98725.82
2022-11-28T15:36:10.807Z,98725.54
2022-11-28T15:38:42.507Z,98725.97
2022-11-28T15:41:11.285Z,98726.12
2022-11-28T15:43:45.604Z,98729.30
2022-11-28T15:46:21.880Z,98728.91
2022-11-28T15:48:52.594Z,98726.23
2022-11-28T15:51:29.647Z,98730.13
2022-11-28T15:53:59.837Z,98733.32
2022-11-28T15:56:27.598Z,98732.33
2022-11-28T15:58:55.610Z,98734.50
2022-11-28T16:01:25.883Z,98735.42
2022-11-28T16:04:07.608Z,98740.84
2022-11-28T16:06:39.313Z,98738.78
2022-11-28T16:09:23.267Z,98740.91
2022-11-28T16:11:53.131Z,98741.02
2022-11-28T16:14:33.395Z,98741.96
2022-11-28T16:17:05.327Z,98744.84
2022-11-28T16:19:36.677Z,98743.38
2022-11-28T16:22:06.131Z,98743.64
2022-11-28T16:24:55.460Z,98743.35
2022-11-28T16:27:42.590Z,98745.13
2022-11-28T16:30:22.920Z,98744.20
2022-11-28T16:32:52.962Z,98744.95
2022-11-28T16:35:30.921Z,98747.41
2022-11-28T16:38:17.768Z,98745.02
2022-11-28T16:40:47.735Z,98747.13
2022-11-28T16:43:31.278Z,98749.73
2022-11-28T16:46:01.438Z,98748.69
2022-11-28T16:48:34.637Z,98743.00
2022-11-28T16:51:02.571Z,98746.30
2022-11-28T16:53:51.187Z,98745.98
2022-11-28T16:56:43.784Z,98750.34
2022-11-28T16:59:16.560Z,98753.84
2022-11-28T17:01:52.369Z,98751.63
2022-11-28T17:04:24.885Z,98751.13
2022-11-28T17:06:55.046Z,98753.05
2022-11-28T17:09:23.234Z,98757.04
2022-11-28T17:11:55.723Z,98752.40
2022-11-28T17:14:23.860Z,98752.30
2022-11-28T17:16:51.951Z,98749.25
2022-11-28T17:19:19.765Z,98746.52
2022-11-28T17:21:50.665Z,98740.40
2022-11-28T17:24:22.248Z,98748.70
2022-11-28T17:26:51.828Z,98745.99
2022-11-28T17:29:20.655Z,98749.64
2022-11-28T17:31:49.146Z,98752.23
2022-11-28T17:34:25.309Z,98752.60
2022-11-28T17:36:54.001Z,98754.52
2022-11-28T17:39:21.972Z,98757.85
2022-11-28T17:41:49.924Z,98751.29
2022-11-28T17:44:22.213Z,98746.98
2022-11-28T17:46:52.123Z,98743.54
2022-11-28T17:49:20.868Z,98740.77
2022-11-28T17:51:50.004Z,98742.55
2022-11-28T17:54:21.109Z,98742.41
2022-11-28T17:56:51.640Z,98734.48
2022-11-28T17:59:22.116Z,98735.20
2022-11-28T18:01:49.947Z,98736.64
2022-11-28T18:04:23.540Z,98738.05
2022-11-28T18:06:53.791Z,98738.41
2022-11-28T18:09:26.915Z,98737.59
2022-11-28T18:11:54.867Z,98731.61
2022-11-28T18:14:22.806Z,98732.19
2022-11-28T18:16:51.044Z,98734.11
2022-11-28T18:19:19.183Z,98730.30
2022-11-28T18:21:47.118Z,98731.86
2022-11-28T18:24:15.994Z,98731.34
2022-11-28T18:26:43.894Z,98732.42
2022-11-28T18:29:11.868Z,98732.63
2022-11-28T18:31:40.302Z,98733.52
2022-11-28T18:34:09.733Z,98732.02
2022-11-28T18:36:39.139Z,98733.07
2022-11-28T18:39:11.538Z,98731.19
2022-11-28T18:41:43.017Z,98732.24
2022-11-28T18:44:11.095Z,98737.63
2022-11-28T18:46:39.127Z,98742.16
2022-11-28T18:49:08.448Z,98736.83
2022-11-28T18:51:37.786Z,98742.40
2022-11-28T18:54:06.387Z,98739.31
2022-11-28T18:56:35.354Z,98737.60
2022-11-28T18:59:04.323Z,98738.64
2022-11-28T19:01:34.488Z,98740.22
2022-11-28T19:04:07.086Z,98738.52
2022-11-28T19:06:37.337Z,98737.31
2022-11-28T19:09:06.533Z,98737.48
2022-11-28T19:11:35.745Z,98733.35
2022-11-28T19:14:04.296Z,98730.91
2022-11-28T19:16:35.610Z,98732.45
2022-11-28T19:19:06.004Z,98734.55
2022-11-28T19:21:36.955Z,98732.48
2022-11-28T19:24:08.205Z,98736.29
2022-11-28T19:26:37.414Z,98733.20
2022-11-28T19:29:22.774Z,98732.69
2022-11-28T19:49:19.816Z,98725.02
2022-11-28T19:51:50.459Z,98734.08
2022-11-28T19:54:21.977Z,98738.02
2022-11-28T19:56:51.276Z,98740.24
2022-11-28T19:59:19.499Z,98746.30
2022-11-28T20:01:49.975Z,98749.77
2022-11-28T20:04:18.484Z,98751.17
2022-11-28T20:06:46.791Z,98755.38
2022-11-28T20:09:15.208Z,98751.96
2022-11-28T20:11:44.624Z,98750.27
2022-11-28T20:14:23.457Z,98748.73
2022-11-28T20:17:05.629Z,98755.47
2022-11-28T20:19:35.431Z,98754.64
2022-11-28T20:22:04.259Z,98756.92
2022-11-28T20:24:33.957Z,98755.09
2022-11-28T20:27:02.354Z,98760.45
2022-11-28T20:29:30.759Z,98758.23
2022-11-28T20:32:00.518Z,98758.25
2022-11-28T20:34:29.033Z,98760.33
2022-11-28T20:36:59.439Z,98760.69
2022-11-28T20:39:32.139Z,98756.71
2022-11-28T20:42:07.090Z,98749.30
2022-11-28T20:44:35.193Z,98753.92
2022-11-28T20:47:03.456Z,98757.23
2022-11-28T20:49:31.994Z,98756.21
2022-11-28T20:52:06.798Z,98758.64
2022-11-28T20:54:35.259Z,98749.20
2022-11-28T20:57:20.912Z,98755.06
2022-11-28T20:59:51.444Z,98761.44
2022-11-28T21:02:19.699Z,98763.34
2022-11-28T21:04:48.206Z,98764.20
2022-11-28T21:07:16.501Z,98764.07
2022-11-28T21:09:45.105Z,98762.73
2022-11-28T21:12:16.676Z,98751.73
2022-11-28T21:14:47.788Z,98763.63
2022-11-28T21:17:16.002Z,98762.77
2022-11-28T21:19:46.633Z,98767.60
2022-11-28T21:22:15.035Z,98767.27
2022-11-28T21:24:45.120Z,98766.75
2022-11-28T21:27:17.913Z,98765.55
2022-11-28T21:29:46.457Z,98766.08
2022-11-28T21:32:16.287Z,98766.80
2022-11-28T21:34:45.008Z,98772.49
2022-11-28T21:37:13.382Z,98760.30
2022-11-28T21:39:41.640Z,98776.82
2022-11-28T21:42:10.203Z,98758.91
2022-11-28T21:44:53.586Z,98775.10
2022-11-28T21:47:21.706Z,98778.38
2022-11-28T21:49:49.777Z,98776.48
2022-11-28T21:52:23.773Z,98779.40
2022-11-28T21:54:52.124Z,98781.13
2022-11-28T21:57:24.182Z,98782.67
2022-11-28T21:59:54.490Z,98782.34
2022-11-28T22:02:27.643Z,98772.35
2022-11-28T22:05:16.497Z,98769.40
2022-11-28T22:07:45.458Z,98775.77
2022-11-28T22:10:13.903Z,98779.04
2022-11-28T22:12:41.852Z,98773.02
2022-11-28T22:15:11.915Z,98770.09
2022-11-28T22:17:41.186Z,98762.88
2022-11-28T22:20:16.208Z,98775.61
2022-11-28T22:22:44.963Z,98763.38
2022-11-28T22:25:14.519Z,98772.52
2022-11-28T22:27:42.749Z,98770.45
2022-11-28T22:30:13.619Z,98774.27
2022-11-28T22:32:42.495Z,98769.30
2022-11-28T22:35:10.843Z,98776.00
2022-11-28T22:37:39.602Z,98770.99
2022-11-28T22:40:08.099Z,98776.52
2022-11-28T22:42:36.069Z,98776.52
2022-11-28T22:45:08.050Z,98774.44
2022-11-28T22:47:39.905Z,98778.39
2022-11-28T22:50:11.209Z,98755.33
2022-11-28T22:52:39.749Z,98760.32
2022-11-28T22:55:17.803Z,98774.42
2022-11-28T22:58:11.330Z,98777.19
2022-11-28T23:00:47.376Z,98775.65
2022-11-28T23:03:18.934Z,98776.34
2022-11-28T23:05:49.321Z,98771.34
2022-11-28T23:08:18.878Z,98770.66
2022-11-28T23:10:48.311Z,98762.40
2022-11-28T23:13:50.834Z,98773.40
2022-11-28T23:17:41.167Z,98773.55
2022-11-28T23:20:09.521Z,98773.38
2022-11-28T23:22:37.342Z,98774.73
2022-11-28T23:25:05.766Z,98771.31
2022-11-28T23:27:33.724Z,98774.23
2022-11-28T23:30:02.048Z,98771.85
2022-11-28T23:32:30.265Z,98772.89
2022-11-28T23:35:00.257Z,98775.67
2022-11-28T23:37:28.636Z,98771.72
2022-11-28T23:39:56.493Z,98772.08
2022-11-28T23:42:24.390Z,98771.73
2022-11-28T23:44:52.194Z,98768.12
2022-11-28T23:47:19.936Z,98769.69
2022-11-28T23:49:47.736Z,98766.92
2022-11-28T23:52:15.617Z,98766.41
2022-11-28T23:54:43.891Z,98766.92
2022-11-28T23:57:11.831Z,98766.61
2022-11-28T23:59:39.826Z,98764.02
